Time;durP1;ratioP1;P1;durP2;ratioP2;P2;SDS_P1;SDS_P2;PMS_P1;PMS_P2;Temp;Humidity;BMP_temperature;BMP_pressure;BME280_temperature;BME280_humidity;BME280_pressure;Samples;Min_cycle;Max_cycle;Signal;HPM_P1;HPM_P2
2022/03/02 00:01:34;;;;;;;;;;;;;;;30.23;19.50;101297.34;5074029;28;839;-42
2022/03/02 00:03:59;;;;;;;;;;;;;;;30.14;19.48;101296.56;5077152;28;832;-42
2022/03/02 00:06:25;;;;;;;;;;;;;;;29.99;19.94;101293.88;5076368;28;928;-42
2022/03/02 00:08:50;;;;;;;;;;;;;;;30.04;19.58;101296.88;5069645;28;908;-42
2022/03/02 00:11:16;;;;;;;;;;;;;;;30.27;19.59;101299.47;5075926;28;1902;-42
2022/03/02 00:13:42;;;;;;;;;;;;;;;30.07;19.27;101299.19;5076806;28;1536;-43
2022/03/02 00:16:08;;;;;;;;;;;;;;;30.18;19.35;101296.00;5069689;28;778;-42
2022/03/02 00:18:33;;;;;;;;;;;;;;;30.33;19.33;101295.13;5056663;28;1301;-42
2022/03/02 00:20:58;;;;;;;;;;;;;;;30.34;19.38;101288.69;5070703;28;851;-42
2022/03/02 00:23:24;;;;;;;;;;;;;;;30.23;19.54;101295.44;5076344;28;861;-42
2022/03/02 00:25:49;;;;;;;;;;;;;;;30.05;19.72;101291.25;5076757;28;861;-42
2022/03/02 00:28:14;;;;;;;;;;;;;;;29.98;19.80;101282.19;5076502;28;832;-42
2022/03/02 00:30:40;;;;;;;;;;;;;;;30.11;19.57;101280.66;5071591;28;1898;-42
2022/03/02 00:33:05;;;;;;;;;;;;;;;30.08;19.23;101273.75;5056260;28;1096;-42
2022/03/02 00:35:31;;;;;;;;;;;;;;;29.99;19.53;101275.75;5055770;28;1028;-42
2022/03/02 00:37:56;;;;;;;;;;;;;;;30.21;19.46;101270.38;5056784;28;789;-42
2022/03/02 00:40:21;;;;;;;;;;;;;;;30.30;19.17;101266.50;5056213;28;1718;-42
2022/03/02 00:42:47;;;;;;;;;;;;;;;30.11;19.46;101270.66;5056179;28;777;-43
2022/03/02 00:45:12;;;;;;;;;;;;;;;30.05;19.55;101255.13;5056858;28;899;-43
2022/03/02 00:47:37;;;;;;;;;;;;;;;30.03;19.71;101257.22;5057067;28;957;-42
2022/03/02 00:50:03;;;;;;;;;;;;;;;30.19;19.51;101259.69;5055932;28;1972;-42
2022/03/02 00:52:28;;;;;;;;;;;;;;;30.25;19.15;101254.53;5056617;28;877;-42
2022/03/02 00:54:55;;;;;;;;;;;;;;;30.30;19.09;101252.94;5056078;28;828;-42
2022/03/02 00:57:20;;;;;;;;;;;;;;;30.35;19.15;101255.06;5056387;28;883;-42
2022/03/02 00:59:45;;;;;;;;;;;;;;;30.41;19.05;101248.88;5075434;28;879;-43
2022/03/02 01:02:10;;;;;;;;;;;;;;;30.34;19.10;101255.28;5058702;28;879;-42
2022/03/02 01:04:36;;;;;;;;;;;;;;;30.21;19.39;101250.53;5055731;28;853;-42
2022/03/02 01:07:01;;;;;;;;;;;;;;;30.02;19.73;101245.50;5056339;28;998;-42
2022/03/02 01:09:27;;;;;;;;;;;;;;;30.15;19.18;101247.53;5055898;28;1893;-42
2022/03/02 01:11:53;;;;;;;;;;;;;;;29.98;19.28;101243.38;5055735;28;848;-42
2022/03/02 01:14:18;;;;;;;;;;;;;;;29.98;19.50;101241.50;5056224;28;848;-42
2022/03/02 01:16:44;;;;;;;;;;;;;;;30.14;19.36;101243.16;5057568;28;818;-42
2022/03/02 01:19:09;;;;;;;;;;;;;;;30.25;19.11;101238.25;5055842;28;1207;-42
2022/03/02 01:21:34;;;;;;;;;;;;;;;30.10;19.36;101230.13;5056191;28;865;-42
2022/03/02 01:24:00;;;;;;;;;;;;;;;30.04;19.29;101238.03;5064791;28;847;-42
2022/03/02 01:26:25;;;;;;;;;;;;;;;30.00;19.42;101231.28;5075681;28;1456;-42
2022/03/02 01:28:53;;;;;;;;;;;;;;;30.19;19.12;101229.84;5075884;28;737;-42
2022/03/02 01:31:21;;;;;;;;;;;;;;;30.09;18.86;101228.47;5065658;28;1906;-43
2022/03/02 01:33:46;;;;;;;;;;;;;;;30.04;19.21;101223.63;5055673;28;1052;-42
2022/03/02 01:36:12;;;;;;;;;;;;;;;30.24;19.29;101225.75;5056946;28;844;-43
2022/03/02 01:38:37;;;;;;;;;;;;;;;30.19;19.05;101226.28;5059603;28;838;-42
2022/03/02 01:41:04;;;;;;;;;;;;;;;30.17;19.11;101229.19;5059529;28;754;-41
2022/03/02 01:43:29;;;;;;;;;;;;;;;30.09;19.20;101225.75;5059805;28;907;-42
2022/03/02 01:45:55;;;;;;;;;;;;;;;29.93;19.34;101223.09;5061073;28;896;-42
2022/03/02 01:48:20;;;;;;;;;;;;;;;30.09;19.24;101220.31;5059753;28;730;-42
2022/03/02 01:50:45;;;;;;;;;;;;;;;30.06;18.79;101219.66;5059078;28;1905;-42
2022/03/02 01:53:10;;;;;;;;;;;;;;;29.96;19.11;101218.31;5059319;28;952;-42
2022/03/02 01:55:36;;;;;;;;;;;;;;;30.23;19.07;101216.75;5059271;28;909;-42
2022/03/02 01:58:01;;;;;;;;;;;;;;;30.33;18.98;101208.28;5059653;28;891;-42
2022/03/02 02:00:26;;;;;;;;;;;;;;;30.21;18.83;101210.69;5060507;28;866;-43
2022/03/02 02:02:52;;;;;;;;;;;;;;;30.04;19.27;101207.34;5073296;28;876;-42
2022/03/02 02:05:17;;;;;;;;;;;;;;;29.94;19.18;101205.78;5078815;28;842;-41
2022/03/02 02:07:43;;;;;;;;;;;;;;;30.06;19.26;101199.88;5079227;28;865;-42
2022/03/02 02:10:08;;;;;;;;;;;;;;;30.11;18.72;101197.41;5078925;28;1960;-42
2022/03/02 02:12:34;;;;;;;;;;;;;;;30.38;18.68;101199.59;5078611;28;881;-42
2022/03/02 02:14:59;;;;;;;;;;;;;;;30.21;18.88;101199.84;5078702;28;898;-42
2022/03/02 02:17:25;;;;;;;;;;;;;;;30.38;18.85;101199.59;5059449;28;908;-42
2022/03/02 02:19:50;;;;;;;;;;;;;;;30.35;18.76;101197.22;5057066;28;805;-42
2022/03/02 02:22:16;;;;;;;;;;;;;;;30.12;18.98;101196.38;5058934;28;868;-42
2022/03/02 02:24:41;;;;;;;;;;;;;;;29.96;19.40;101192.03;5059112;28;794;-42
2022/03/02 02:27:06;;;;;;;;;;;;;;;30.05;19.24;101193.59;5058476;28;906;-42
2022/03/02 02:29:32;;;;;;;;;;;;;;;29.89;19.42;101186.53;5058427;28;1890;-42
2022/03/02 02:31:57;;;;;;;;;;;;;;;29.85;19.36;101190.66;5059813;28;1068;-41
2022/03/02 02:34:22;;;;;;;;;;;;;;;30.15;19.19;101178.84;5056772;28;831;-42
2022/03/02 02:36:47;;;;;;;;;;;;;;;30.02;19.20;101183.13;5057857;28;906;-42
2022/03/02 02:39:13;;;;;;;;;;;;;;;29.94;19.52;101181.38;5058768;28;863;-41
2022/03/02 02:41:38;;;;;;;;;;;;;;;29.89;19.50;101177.56;5077349;28;891;-43
2022/03/02 02:44:04;;;;;;;;;;;;;;;30.00;19.33;101184.34;5078665;28;762;-42
2022/03/02 02:46:29;;;;;;;;;;;;;;;30.10;19.31;101181.31;5066636;28;843;-42
2022/03/02 02:48:54;;;;;;;;;;;;;;;30.35;18.90;101186.38;5056941;28;797;-42
2022/03/02 02:51:19;;;;;;;;;;;;;;;30.57;18.88;101184.50;5058135;28;1918;-43
2022/03/02 02:53:45;;;;;;;;;;;;;;;30.38;18.56;101177.88;5058087;28;848;-42
2022/03/02 02:56:10;;;;;;;;;;;;;;;29.97;19.34;101172.00;5058088;28;939;-43
2022/03/02 02:58:35;;;;;;;;;;;;;;;29.85;18.77;101176.25;5058372;28;766;-42
2022/03/02 03:01:02;;;;;;;;;;;;;;;29.66;19.11;101165.00;5059227;28;904;-42
2022/03/02 03:03:27;;;;;;;;;;;;;;;29.71;19.95;101167.97;5058083;28;846;-42
2022/03/02 03:05:52;;;;;;;;;;;;;;;29.58;20.13;101164.03;5057760;28;859;-43
2022/03/02 03:08:18;;;;;;;;;;;;;;;29.38;20.49;101161.06;5057934;28;844;-42
2022/03/02 03:10:43;;;;;;;;;;;;;;;29.21;20.27;101155.84;5058064;28;1959;-42
2022/03/02 03:13:09;;;;;;;;;;;;;;;29.15;20.67;101166.59;5058253;28;889;-42
2022/03/02 03:15:35;;;;;;;;;;;;;;;29.01;20.13;101157.47;5059388;28;925;-42
2022/03/02 03:18:00;;;;;;;;;;;;;;;29.00;20.29;101156.59;5061616;28;1058;-42
2022/03/02 03:20:26;;;;;;;;;;;;;;;28.53;21.02;101159.41;5076381;28;890;-42
2022/03/02 03:22:51;;;;;;;;;;;;;;;28.15;21.71;101152.06;5077520;28;775;-42
2022/03/02 03:25:17;;;;;;;;;;;;;;;28.22;21.42;101158.44;5077712;28;793;-42
2022/03/02 03:27:42;;;;;;;;;;;;;;;28.54;21.34;101155.69;5077627;28;912;-42
2022/03/02 03:30:08;;;;;;;;;;;;;;;28.55;21.15;101154.66;5077626;28;1902;-42
2022/03/02 03:32:34;;;;;;;;;;;;;;;28.92;20.87;101145.84;5057060;28;1513;-42
2022/03/02 03:34:59;;;;;;;;;;;;;;;29.34;20.27;101143.53;5057458;28;838;-42
2022/03/02 03:37:25;;;;;;;;;;;;;;;29.66;19.95;101146.84;5057460;28;825;-42
2022/03/02 03:39:50;;;;;;;;;;;;;;;30.06;19.37;101148.31;5057425;28;904;-42
2022/03/02 03:42:16;;;;;;;;;;;;;;;30.25;19.12;101146.84;5057120;28;900;-42
2022/03/02 03:44:41;;;;;;;;;;;;;;;30.56;18.82;101142.09;5057468;28;991;-44
2022/03/02 03:47:07;;;;;;;;;;;;;;;30.66;18.80;101142.56;5058815;28;888;-43
2022/03/02 03:49:33;;;;;;;;;;;;;;;30.33;18.51;101140.44;5057036;28;1969;-42
2022/03/02 03:51:58;;;;;;;;;;;;;;;30.09;19.09;101138.94;5057258;28;873;-41
2022/03/02 03:54:24;;;;;;;;;;;;;;;30.18;19.05;101141.31;5056766;28;937;-42
2022/03/02 03:56:49;;;;;;;;;;;;;;;30.26;19.12;101134.13;5057288;28;892;-42
2022/03/02 03:59:15;;;;;;;;;;;;;;;30.22;19.07;101136.38;5056472;28;921;-42
2022/03/02 04:01:40;;;;;;;;;;;;;;;30.21;18.88;101137.44;5057932;28;991;-42
2022/03/02 04:04:05;;;;;;;;;;;;;;;29.80;19.58;101134.28;5057002;28;796;-42
2022/03/02 04:06:31;;;;;;;;;;;;;;;29.85;19.45;101128.28;5057351;28;856;-42
2022/03/02 04:08:56;;;;;;;;;;;;;;;29.88;18.91;101121.66;5056818;28;894;-42
2022/03/02 04:11:22;;;;;;;;;;;;;;;30.01;19.24;101121.75;5056735;28;1898;-43
2022/03/02 04:13:47;;;;;;;;;;;;;;;30.04;19.13;101126.81;5056853;28;805;-42
2022/03/02 04:16:13;;;;;;;;;;;;;;;30.14;19.07;101122.94;5057994;28;1099;-42
2022/03/02 04:18:38;;;;;;;;;;;;;;;29.91;18.22;101115.84;5056609;28;1123;-44
2022/03/02 04:21:03;;;;;;;;;;;;;;;29.27;16.89;101113.63;5055448;28;920;-44
2022/03/02 04:23:29;;;;;;;;;;;;;;;28.50;16.45;101113.75;5055862;28;947;-41
2022/03/02 04:25:54;;;;;;;;;;;;;;;28.76;16.54;101112.47;5056046;28;794;-42
2022/03/02 04:28:19;;;;;;;;;;;;;;;28.84;16.86;101108.84;5056501;28;817;-41
2022/03/02 04:30:44;;;;;;;;;;;;;;;28.04;17.02;101101.97;5057776;28;1957;-42
2022/03/02 04:33:10;;;;;;;;;;;;;;;28.33;16.91;101105.78;5055591;28;1252;-42
2022/03/02 04:35:35;;;;;;;;;;;;;;;28.08;17.62;101105.13;5056240;28;832;-42
2022/03/02 04:38:01;;;;;;;;;;;;;;;27.69;17.98;101105.06;5056204;28;837;-42
2022/03/02 04:40:26;;;;;;;;;;;;;;;27.22;18.50;101109.47;5056512;28;805;-42
2022/03/02 04:42:51;;;;;;;;;;;;;;;27.70;18.04;101109.44;5056151;28;994;-42
2022/03/02 04:45:17;;;;;;;;;;;;;;;26.92;18.69;101118.16;5057545;28;837;-41
2022/03/02 04:47:42;;;;;;;;;;;;;;;27.44;18.34;101117.84;5054694;28;970;-42
2022/03/02 04:50:08;;;;;;;;;;;;;;;26.64;19.19;101140.97;5056149;28;1902;-42
2022/03/02 04:52:34;;;;;;;;;;;;;;;26.16;17.30;101135.38;5054814;28;893;-43
2022/03/02 04:55:09;;;;;;;;;;;;;;;26.17;17.67;101131.69;5055893;28;817;-42
2022/03/02 04:57:39;;;;;;;;;;;;;;;26.60;17.40;101134.25;5066552;28;1585;-41
2022/03/02 05:00:05;;;;;;;;;;;;;;;26.64;16.85;101134.75;5065074;28;813;-41
2022/03/02 05:02:31;;;;;;;;;;;;;;;26.67;17.14;101120.06;5070256;28;1392;-42
2022/03/02 05:04:56;;;;;;;;;;;;;;;28.07;16.09;101127.78;5075871;28;825;-41
2022/03/02 05:07:21;;;;;;;;;;;;;;;28.14;16.41;101117.09;5075808;28;818;-41
2022/03/02 05:09:47;;;;;;;;;;;;;;;27.85;16.98;101128.44;5075515;28;1955;-41
2022/03/02 05:12:12;;;;;;;;;;;;;;;27.63;17.45;101133.59;5078024;28;900;-41
2022/03/02 05:14:37;;;;;;;;;;;;;;;28.31;16.66;101134.84;5076380;28;1021;-41
2022/03/02 05:17:03;;;;;;;;;;;;;;;28.34;17.20;101125.59;5076061;28;839;-42
2022/03/02 05:19:28;;;;;;;;;;;;;;;27.02;18.65;101131.50;5078173;28;855;-42
2022/03/02 05:21:53;;;;;;;;;;;;;;;26.56;19.41;101123.97;5080139;28;805;-41
2022/03/02 05:24:19;;;;;;;;;;;;;;;26.97;18.97;101123.88;5079463;28;885;-41
2022/03/02 05:26:44;;;;;;;;;;;;;;;27.11;19.08;101129.63;5079111;28;837;-42
2022/03/02 05:29:10;;;;;;;;;;;;;;;26.72;19.96;101131.19;5079555;28;912;-42
2022/03/02 05:31:35;;;;;;;;;;;;;;;27.58;19.10;101127.88;5078968;28;944;-42
2022/03/02 05:34:01;;;;;;;;;;;;;;;28.22;18.26;101127.84;5079334;28;1134;-42
2022/03/02 05:36:26;;;;;;;;;;;;;;;28.35;18.23;101127.25;5078925;28;1141;-42
2022/03/02 05:38:52;;;;;;;;;;;;;;;28.41;18.53;101120.28;5076611;28;826;-42
2022/03/02 05:41:17;;;;;;;;;;;;;;;28.51;18.36;101126.25;5079490;28;749;-42
2022/03/02 05:43:42;;;;;;;;;;;;;;;28.84;18.07;101119.69;5075242;28;1083;-43
2022/03/02 05:46:08;;;;;;;;;;;;;;;28.70;17.93;101122.19;5070994;28;1210;-42
2022/03/02 05:48:33;;;;;;;;;;;;;;;28.50;18.49;101119.16;5079670;28;781;-42
2022/03/02 05:50:58;;;;;;;;;;;;;;;28.42;18.41;101119.25;5078655;28;1906;-41
2022/03/02 05:53:24;;;;;;;;;;;;;;;28.14;18.58;101130.59;5078865;28;837;-42
2022/03/02 05:55:49;;;;;;;;;;;;;;;28.42;18.44;101122.81;5079075;28;810;-42
2022/03/02 05:58:14;;;;;;;;;;;;;;;28.17;18.75;101125.69;5078812;28;804;-42
2022/03/02 06:00:41;;;;;;;;;;;;;;;28.21;18.76;101129.69;5079217;28;774;-40
2022/03/02 06:03:06;;;;;;;;;;;;;;;27.47;19.65;101123.72;5078351;28;1055;-40
2022/03/02 06:05:32;;;;;;;;;;;;;;;27.16;20.33;101129.91;5077989;28;1209;-42
2022/03/02 06:07:57;;;;;;;;;;;;;;;26.86;20.07;101119.69;5078126;28;1407;-43
2022/03/02 06:10:23;;;;;;;;;;;;;;;26.61;20.75;101122.41;5078918;28;1969;-42
2022/03/02 06:12:48;;;;;;;;;;;;;;;26.61;20.55;101113.50;5073298;28;996;-42
2022/03/02 06:15:14;;;;;;;;;;;;;;;26.75;20.00;101125.44;5072710;28;1265;-41
2022/03/02 06:17:39;;;;;;;;;;;;;;;26.67;19.37;101123.59;5074513;28;982;-42
2022/03/02 06:20:05;;;;;;;;;;;;;;;26.49;19.33;101121.09;5074340;28;1284;-42
2022/03/02 06:22:30;;;;;;;;;;;;;;;26.51;19.29;101121.75;5078083;28;775;-42
2022/03/02 06:24:57;;;;;;;;;;;;;;;26.63;20.67;101127.66;5078588;28;833;-43
2022/03/02 06:27:22;;;;;;;;;;;;;;;26.46;20.21;101126.84;5075283;28;1158;-42
2022/03/02 06:29:48;;;;;;;;;;;;;;;26.11;20.51;101121.56;5074238;28;1951;-42
2022/03/02 06:32:13;;;;;;;;;;;;;;;25.71;20.80;101115.94;5076086;28;1253;-41
2022/03/02 06:34:39;;;;;;;;;;;;;;;25.48;21.44;101109.28;5076389;28;1095;-41
2022/03/02 06:37:04;;;;;;;;;;;;;;;25.45;20.95;101117.69;5075071;28;1214;-41
2022/03/02 06:39:29;;;;;;;;;;;;;;;25.73;21.66;101116.59;5073875;28;1347;-42
2022/03/02 06:42:21;;;;;;;;;;;;;;;25.99;21.58;101112.97;5077853;28;1529;-43
2022/03/02 06:44:47;;;;;;;;;;;;;;;26.28;21.17;101109.78;5066143;28;1511;-41
2022/03/02 06:47:13;;;;;;;;;;;;;;;26.25;21.75;101110.13;5071241;28;1591;-42
2022/03/02 06:49:38;;;;;;;;;;;;;;;25.99;20.99;101110.28;5072012;28;1922;-42
2022/03/02 06:52:04;;;;;;;;;;;;;;;25.90;20.95;101107.56;5070003;28;1357;-44
2022/03/02 06:54:30;;;;;;;;;;;;;;;25.89;21.52;101107.72;5067245;28;1306;-43
2022/03/02 06:56:56;;;;;;;;;;;;;;;25.83;21.85;101105.66;5076554;28;1534;-43
2022/03/02 06:59:29;;;;;;;;;;;;;;;25.88;21.46;101104.19;5074293;28;1392;-44
2022/03/02 07:01:54;;;;;;;;;;;;;;;25.92;21.91;101102.00;5069638;28;1358;-44
2022/03/02 07:04:19;;;;;;;;;;;;;;;26.03;21.81;101096.28;5073746;28;1031;-44
2022/03/02 07:06:45;;;;;;;;;;;;;;;25.84;22.07;101099.28;5076228;28;1175;-42
2022/03/02 07:09:10;;;;;;;;;;;;;;;25.90;23.42;101101.31;5072223;28;1334;-45
2022/03/02 07:11:35;;;;;;;;;;;;;;;25.97;22.26;101105.03;5075027;28;1971;-44
2022/03/02 07:14:00;;;;;;;;;;;;;;;26.04;22.61;101097.13;5068469;28;1594;-42
2022/03/02 07:16:26;;;;;;;;;;;;;;;25.97;21.96;101099.66;5073216;28;1366;-44
2022/03/02 07:18:52;;;;;;;;;;;;;;;25.94;21.93;101100.00;5074009;28;1744;-43
2022/03/02 07:21:18;;;;;;;;;;;;;;;26.13;21.82;101097.97;5071586;28;1064;-42
2022/03/02 07:23:47;;;;;;;;;;;;;;;26.00;21.70;101102.00;5075225;28;1348;-43
2022/03/02 07:26:13;;;;;;;;;;;;;;;25.98;22.25;101093.25;5073232;28;1438;-42
2022/03/02 07:28:38;;;;;;;;;;;;;;;25.80;22.12;101096.09;5076317;28;1116;-43
2022/03/02 07:31:05;;;;;;;;;;;;;;;25.87;21.62;101091.72;5063415;28;1902;-43
2022/03/02 07:33:30;;;;;;;;;;;;;;;26.20;21.64;101087.34;5069182;28;1492;-43
2022/03/02 07:35:56;;;;;;;;;;;;;;;26.26;21.20;101084.81;5075133;28;813;-42
2022/03/02 07:38:21;;;;;;;;;;;;;;;26.14;21.43;101086.19;5076310;28;1364;-42
2022/03/02 07:40:48;;;;;;;;;;;;;;;26.16;21.72;101089.53;5074942;28;1416;-42
2022/03/02 07:43:14;;;;;;;;;;;;;;;26.17;21.54;101081.28;5074789;28;1353;-43
2022/03/02 07:45:39;;;;;;;;;;;;;;;25.27;21.61;100967.00;5072010;28;1368;-42
2022/03/02 07:48:04;;;;;;;;;;;;;;;25.80;22.35;101088.00;5075385;28;1333;-43
2022/03/02 07:50:30;;;;;;;;;;;;;;;25.75;22.29;101082.25;5075137;28;1972;-44
2022/03/02 07:52:55;;;;;;;;;;;;;;;25.71;22.40;101080.91;5075429;28;1422;-42
2022/03/02 07:55:21;;;;;;;;;;;;;;;26.06;22.61;101080.78;5073955;28;1520;-43
2022/03/02 07:57:50;;;;;;;;;;;;;;;25.87;22.31;101077.41;5072050;28;898;-43
2022/03/02 08:00:16;;;;;;;;;;;;;;;26.00;22.01;101077.75;5073491;28;1638;-43
2022/03/02 08:02:41;;;;;;;;;;;;;;;26.02;22.51;101073.03;5072702;28;1361;-42
2022/03/02 08:05:07;;;;;;;;;;;;;;;25.64;22.60;101073.47;5076345;28;1369;-44
2022/03/02 08:07:32;;;;;;;;;;;;;;;25.80;22.20;101074.53;5073522;28;1256;-42
2022/03/02 08:09:58;;;;;;;;;;;;;;;25.83;22.58;101071.50;5073599;28;1981;-42
2022/03/02 08:12:26;;;;;;;;;;;;;;;25.59;22.50;101067.69;5073028;28;1352;-42
2022/03/02 08:14:51;;;;;;;;;;;;;;;25.75;22.27;101066.94;5071664;28;841;-43
2022/03/02 08:17:17;;;;;;;;;;;;;;;25.81;22.49;101062.72;5074271;28;1323;-43
2022/03/02 08:19:42;;;;;;;;;;;;;;;25.43;22.60;101068.50;5075389;28;1471;-43
2022/03/02 08:22:12;;;;;;;;;;;;;;;25.57;22.95;101058.97;5075033;28;1202;-42
2022/03/02 08:24:43;;;;;;;;;;;;;;;25.81;22.52;101065.41;5071224;28;1238;-45
2022/03/02 08:27:10;;;;;;;;;;;;;;;25.37;22.80;101058.41;5075598;28;1439;-42
2022/03/02 08:29:35;;;;;;;;;;;;;;;25.33;23.59;101057.03;5069397;28;1897;-42
2022/03/02 08:32:01;;;;;;;;;;;;;;;25.02;23.07;101053.06;5071982;28;1301;-41
2022/03/02 08:34:27;;;;;;;;;;;;;;;25.05;23.47;101056.28;5075441;28;1337;-41
2022/03/02 08:36:52;;;;;;;;;;;;;;;25.31;22.95;101062.56;5065495;28;1541;-42
2022/03/02 08:39:18;;;;;;;;;;;;;;;25.04;23.25;101059.94;5074687;28;1159;-43
2022/03/02 08:41:43;;;;;;;;;;;;;;;25.05;23.32;101064.34;5074928;28;1369;-42
2022/03/02 08:44:09;;;;;;;;;;;;;;;24.97;23.42;101064.31;5075020;28;1563;-43
2022/03/02 08:46:34;;;;;;;;;;;;;;;24.99;23.32;101064.97;5071329;28;1039;-43
2022/03/02 08:48:59;;;;;;;;;;;;;;;25.19;23.21;101056.66;5073062;28;1240;-42
2022/03/02 08:51:25;;;;;;;;;;;;;;;25.02;23.69;101051.22;5075611;28;1957;-42
2022/03/02 08:53:50;;;;;;;;;;;;;;;24.91;23.83;101046.09;5075372;28;1550;-42
2022/03/02 08:56:16;;;;;;;;;;;;;;;25.04;23.43;101042.97;5074961;28;1759;-41
2022/03/02 08:58:41;;;;;;;;;;;;;;;25.28;23.47;101035.97;5071096;28;1517;-42
2022/03/02 09:01:06;;;;;;;;;;;;;;;25.22;23.19;101044.72;5071622;28;1226;-42
2022/03/02 09:03:33;;;;;;;;;;;;;;;25.14;23.38;101032.09;5073585;28;1534;-42
2022/03/02 09:05:58;;;;;;;;;;;;;;;25.22;23.19;101034.81;5075914;28;1090;-42
2022/03/02 09:08:23;;;;;;;;;;;;;;;25.13;23.32;101030.38;5074299;28;1560;-42
2022/03/02 09:10:49;;;;;;;;;;;;;;;25.14;23.29;101032.91;5075181;28;1894;-42
2022/03/02 09:13:14;;;;;;;;;;;;;;;25.16;23.45;101027.34;5070412;28;1438;-42
2022/03/02 09:15:39;;;;;;;;;;;;;;;25.04;23.48;101022.28;5071923;28;1732;-42
2022/03/02 09:18:05;;;;;;;;;;;;;;;25.02;23.63;101023.44;5071163;28;1316;-42
2022/03/02 09:20:33;;;;;;;;;;;;;;;24.99;23.78;101016.53;5067813;28;1494;-41
2022/03/02 09:23:02;;;;;;;;;;;;;;;25.02;23.45;101010.84;5068596;28;1423;-40
2022/03/02 09:25:28;;;;;;;;;;;;;;;25.24;23.36;101018.50;5068527;28;1796;-43
2022/03/02 09:27:53;;;;;;;;;;;;;;;25.29;23.61;101006.19;5069283;28;1489;-42
2022/03/02 09:30:18;;;;;;;;;;;;;;;25.30;23.46;101010.59;5069951;28;1901;-42
2022/03/02 09:32:44;;;;;;;;;;;;;;;25.29;23.48;101003.50;5070682;28;1364;-43
2022/03/02 09:35:13;;;;;;;;;;;;;;;25.11;23.53;100994.72;5074823;28;1724;-42
2022/03/02 09:37:40;;;;;;;;;;;;;;;25.02;23.59;100994.69;5071263;28;1233;-42
2022/03/02 09:40:05;;;;;;;;;;;;;;;25.07;23.57;100992.34;5064921;28;1380;-42
2022/03/02 09:42:31;;;;;;;;;;;;;;;25.36;23.80;100997.50;5069495;28;1120;-42
2022/03/02 09:45:01;;;;;;;;;;;;;;;25.39;23.28;100989.06;5074575;28;1423;-43
2022/03/02 09:47:26;;;;;;;;;;;;;;;25.01;23.62;100994.84;5072570;28;978;-41
2022/03/02 09:49:53;;;;;;;;;;;;;;;25.10;23.45;100982.25;5073114;28;1967;-43
2022/03/02 09:52:21;;;;;;;;;;;;;;;25.13;23.34;100981.94;5071041;28;1286;-43
2022/03/02 09:54:47;;;;;;;;;;;;;;;25.09;23.31;100980.59;5067788;28;1166;-43
2022/03/02 09:57:16;;;;;;;;;;;;;;;25.10;23.30;100976.88;5073762;28;1452;-43
2022/03/02 09:59:41;;;;;;;;;;;;;;;25.06;22.96;100971.81;5072851;28;1234;-43
2022/03/02 10:02:07;;;;;;;;;;;;;;;24.89;22.56;100960.13;5076208;28;1401;-43
2022/03/02 10:04:35;;;;;;;;;;;;;;;25.01;22.85;100957.16;5077938;28;1389;-41
2022/03/02 10:09:46;;;;;;;;;;;;;;;24.89;23.09;100953.91;5074842;28;1902;-43
2022/03/02 10:12:12;;;;;;;;;;;;;;;24.89;23.12;100945.84;5077545;28;1223;-43
2022/03/02 10:14:37;;;;;;;;;;;;;;;24.83;23.11;100941.94;5076637;28;1276;-41
2022/03/02 10:17:02;;;;;;;;;;;;;;;24.96;23.04;100936.13;5075867;28;1522;-43
2022/03/02 10:19:28;;;;;;;;;;;;;;;24.85;23.12;100936.41;5074466;28;1312;-41
2022/03/02 10:22:03;;;;;;;;;;;;;;;25.00;22.99;100940.19;5075728;28;1370;-43
2022/03/02 10:24:29;;;;;;;;;;;;;;;25.16;22.76;100930.44;5077372;28;1503;-43
2022/03/02 10:26:55;;;;;;;;;;;;;;;25.13;22.88;100925.41;5075935;28;873;-44
2022/03/02 10:29:20;;;;;;;;;;;;;;;25.07;22.74;100913.47;5074750;28;1548;-43
2022/03/02 10:31:46;;;;;;;;;;;;;;;24.97;22.98;100907.38;5074211;28;1961;-43
2022/03/02 10:34:29;;;;;;;;;;;;;;;24.89;22.87;100919.75;5077511;28;1301;-43
2022/03/02 10:37:13;;;;;;;;;;;;;;;24.86;22.86;100909.31;5077330;28;1210;-43
2022/03/02 10:39:50;;;;;;;;;;;;;;;24.95;22.97;100902.16;5074349;28;1416;-43
2022/03/02 10:42:26;;;;;;;;;;;;;;;25.02;22.69;100900.50;5070903;28;1265;-43
2022/03/02 10:44:54;;;;;;;;;;;;;;;25.20;22.63;100896.81;5075062;28;1357;-43
2022/03/02 10:47:20;;;;;;;;;;;;;;;25.37;22.51;100886.91;5075055;28;1285;-41
2022/03/02 10:49:45;;;;;;;;;;;;;;;25.46;22.44;100895.00;5076215;28;1971;-42
2022/03/02 10:52:12;;;;;;;;;;;;;;;25.34;22.32;100879.13;5073534;28;1512;-43
2022/03/02 10:54:37;;;;;;;;;;;;;;;25.49;22.52;100882.00;5075206;28;1544;-43
2022/03/02 10:57:02;;;;;;;;;;;;;;;25.16;22.62;100872.06;5075575;28;1346;-43
2022/03/02 10:59:28;;;;;;;;;;;;;;;25.12;22.68;100868.03;5075713;28;1142;-43
2022/03/02 11:01:53;;;;;;;;;;;;;;;24.71;23.17;100860.69;5070569;28;1333;-43
2022/03/02 11:04:19;;;;;;;;;;;;;;;24.58;23.31;100858.47;5074815;28;1497;-43
2022/03/02 11:06:44;;;;;;;;;;;;;;;24.62;23.30;100849.09;5073079;28;1372;-43
2022/03/02 11:09:10;;;;;;;;;;;;;;;24.87;22.41;100853.66;5073125;28;1381;-43
2022/03/02 11:11:38;;;;;;;;;;;;;;;25.05;22.89;100848.19;5075054;28;1906;-43
2022/03/02 11:14:04;;;;;;;;;;;;;;;25.10;22.87;100842.28;5077309;28;1341;-43
2022/03/02 11:16:29;;;;;;;;;;;;;;;25.24;22.65;100840.78;5073071;28;1031;-42
2022/03/02 11:18:55;;;;;;;;;;;;;;;25.46;22.76;100835.75;5076492;28;1209;-43
2022/03/02 11:21:29;;;;;;;;;;;;;;;25.29;22.75;100835.75;5071994;28;855;-42
2022/03/02 11:23:56;;;;;;;;;;;;;;;25.44;22.63;100822.44;5074542;28;1019;-42
2022/03/02 11:26:23;;;;;;;;;;;;;;;25.61;22.32;100819.72;5077529;28;993;-42
2022/03/02 11:28:55;;;;;;;;;;;;;;;25.54;22.39;100812.31;5075572;28;1310;-42
2022/03/02 11:31:29;;;;;;;;;;;;;;;25.69;22.41;100803.59;5071099;28;1972;-42
2022/03/02 11:34:13;;;;;;;;;;;;;;;25.65;22.27;100789.63;5075256;28;1229;-43
2022/03/02 11:36:39;;;;;;;;;;;;;;;25.58;22.34;100809.28;5075017;28;1341;-42
2022/03/02 11:39:05;;;;;;;;;;;;;;;25.78;22.21;100805.22;5075157;28;1257;-42
2022/03/02 11:41:34;;;;;;;;;;;;;;;25.75;21.88;100804.72;5074209;28;1198;-43
2022/03/02 11:44:00;;;;;;;;;;;;;;;26.03;22.00;100790.81;5074688;28;1371;-43
2022/03/02 11:46:26;;;;;;;;;;;;;;;26.48;23.22;100804.63;5075002;28;1175;-42
2022/03/02 11:48:51;;;;;;;;;;;;;;;26.25;21.45;100794.63;5074296;28;1198;-41
2022/03/02 11:51:28;;;;;;;;;;;;;;;25.63;22.40;100790.78;5073589;28;1922;-41
2022/03/02 11:53:58;;;;;;;;;;;;;;;25.36;22.63;100787.44;5075667;28;813;-41
2022/03/02 11:56:24;;;;;;;;;;;;;;;25.29;22.39;100798.06;5075164;28;1392;-41
2022/03/02 11:58:59;;;;;;;;;;;;;;;25.24;22.59;100792.34;5075381;28;1241;-41
2022/03/02 12:01:25;;;;;;;;;;;;;;;25.25;22.64;100794.00;5074014;28;863;-41
2022/03/02 12:04:00;;;;;;;;;;;;;;;25.42;22.32;100790.28;5075957;28;1468;-42
2022/03/02 12:06:26;;;;;;;;;;;;;;;25.53;22.47;100788.25;5074218;28;1376;-42
2022/03/02 12:08:52;;;;;;;;;;;;;;;25.43;22.33;100780.34;5075334;28;1048;-42
2022/03/02 12:11:22;;;;;;;;;;;;;;;25.32;22.64;100781.56;5071066;28;1914;-42
2022/03/02 12:14:00;;;;;;;;;;;;;;;25.32;22.53;100773.47;5074083;28;1237;-42
2022/03/02 12:16:36;;;;;;;;;;;;;;;25.33;22.29;100771.59;5072338;28;1226;-42
2022/03/02 12:19:01;;;;;;;;;;;;;;;25.38;22.57;100764.72;5076436;28;793;-42
2022/03/02 12:21:27;;;;;;;;;;;;;;;25.78;21.98;100770.22;5073573;28;1246;-42
2022/03/02 12:23:52;;;;;;;;;;;;;;;25.74;21.68;100768.03;5075757;28;1412;-40
2022/03/02 12:26:17;;;;;;;;;;;;;;;25.62;22.08;100765.69;5073938;28;1314;-40
2022/03/02 12:28:53;;;;;;;;;;;;;;;25.47;22.07;100760.16;5075326;28;1415;-40
2022/03/02 12:31:18;;;;;;;;;;;;;;;25.51;22.07;100764.19;5071297;28;1901;-42
2022/03/02 12:33:43;;;;;;;;;;;;;;;25.57;22.15;100759.97;5075789;28;1344;-42
2022/03/02 12:36:08;;;;;;;;;;;;;;;25.71;22.12;100763.81;5073581;28;1127;-41
2022/03/02 12:38:34;;;;;;;;;;;;;;;25.90;21.70;100753.66;5071715;28;1233;-41
2022/03/02 12:40:59;;;;;;;;;;;;;;;25.90;22.01;100754.50;5070238;28;1441;-41
2022/03/02 12:43:26;;;;;;;;;;;;;;;25.65;22.07;100754.59;5075655;28;837;-41
2022/03/02 12:45:51;;;;;;;;;;;;;;;25.65;22.20;100751.03;5072056;28;1280;-41
2022/03/02 12:48:17;;;;;;;;;;;;;;;25.48;22.25;100752.91;5061737;28;1256;-41